Weather at Mayo Clinic Heliport

Public forecast

Using degrees Fahrenheit for public forecast. Weather courtesy of forecast.io.

Closest aviation weather report (METAR) to Mayo Clinic Heliport

Closest report is Jacksonville Executive at Craig Airport, 5.7 nm (10.6 km) NW. Retrieved 2020/10/29 06:53 UTC (10 minutes ago):

KCRG 290653Z AUTO 17009KT 10SM CLR 26/23 A2993 RMK AO2 SLP136 T02610233

Closest aviation forecast (TAF) to Mayo Clinic Heliport

Closest forecast is Jacksonville Executive at Craig Airport, 5.7 nm (10.6 km) NW. Retrieved 2020/10/29 06:24 UTC (39 minutes ago):

TAF KCRG 290523Z 2906/3006 16009KT P6SM BKN015 BKN250 FM291300 20013G20KT P6SM SCT040 OVC120 FM291800 22015G25KT P6SM VCTS BKN040CB FM300200 25010KT P6SM BKN080